createdAt,value
2023-02-17T00:01:16.880Z,97893.31
2023-02-17T00:03:48.316Z,97896.06
2023-02-17T00:06:21.952Z,97890.66
2023-02-17T00:08:50.860Z,97897.91
2023-02-17T00:11:19.845Z,97893.53
2023-02-17T00:13:48.560Z,97886.91
2023-02-17T00:16:19.897Z,97889.13
2023-02-17T00:18:54.240Z,97882.66
2023-02-17T00:21:24.817Z,97882.66
2023-02-17T00:23:53.858Z,97880.56
2023-02-17T00:26:23.064Z,97876.66
2023-02-17T00:28:52.117Z,97875.72
2023-02-17T00:31:22.286Z,97872.34
2023-02-17T00:33:52.470Z,97862.44
2023-02-17T00:36:22.048Z,97868.09
2023-02-17T00:38:50.669Z,97868.69
2023-02-17T00:41:20.297Z,97865.22
2023-02-17T00:43:49.419Z,97871.44
2023-02-17T00:46:18.820Z,97870.16
2023-02-17T00:48:48.264Z,97869.63
2023-02-17T00:51:18.882Z,97866.34
2023-02-17T00:53:47.700Z,97870.03
2023-02-17T00:56:16.658Z,97872.59
2023-02-17T00:58:46.493Z,97875.13
2023-02-17T01:01:15.192Z,97876.03
2023-02-17T01:03:44.654Z,97873.16
2023-02-17T01:06:23.811Z,97876.75
2023-02-17T01:08:52.156Z,97879.06
2023-02-17T01:11:23.250Z,97873.25
2023-02-17T01:13:51.947Z,97873.13
2023-02-17T01:16:48.324Z,97865.84
2023-02-17T01:19:19.233Z,97870.69
2023-02-17T01:21:50.983Z,97868.38
2023-02-17T01:24:19.248Z,97862.00
2023-02-17T01:26:47.601Z,97871.59
2023-02-17T01:29:16.023Z,97862.59
2023-02-17T01:31:45.687Z,97861.88
2023-02-17T01:34:14.154Z,97863.25
2023-02-17T01:36:42.621Z,97863.84
2023-02-17T01:39:15.030Z,97863.38
2023-02-17T01:41:44.318Z,97855.59
2023-02-17T01:44:17.215Z,97865.25
2023-02-17T01:46:47.416Z,97864.31
2023-02-17T01:49:30.862Z,97863.28
2023-02-17T01:52:05.370Z,97866.88
2023-02-17T01:54:39.512Z,97852.41
2023-02-17T01:57:11.505Z,97854.97
2023-02-17T01:59:40.527Z,97863.84
2023-02-17T02:02:10.059Z,97852.25
2023-02-17T02:04:40.932Z,97855.97
2023-02-17T02:07:15.104Z,97858.53
2023-02-17T02:09:48.769Z,97851.09
2023-02-17T02:12:22.945Z,97850.53
2023-02-17T02:14:52.114Z,97847.41
2023-02-17T02:17:30.685Z,97845.69
2023-02-17T02:20:28.572Z,97836.66
2023-02-17T02:23:11.857Z,97834.84
2023-02-17T02:26:01.434Z,97837.00
2023-02-17T02:28:42.920Z,97831.78
2023-02-17T02:31:26.746Z,97829.66
2023-02-17T02:33:58.748Z,97827.72
2023-02-17T02:36:30.713Z,97816.22
2023-02-17T02:39:02.803Z,97811.47
2023-02-17T02:41:35.246Z,97815.25
2023-02-17T02:44:05.695Z,97812.16
2023-02-17T02:46:35.387Z,97801.50
2023-02-17T02:49:06.220Z,97805.75
2023-02-17T02:51:45.129Z,97802.63
2023-02-17T02:54:29.500Z,97804.16
2023-02-17T02:57:07.024Z,97793.66
2023-02-17T02:59:45.900Z,97785.31
2023-02-17T03:02:19.747Z,97786.72
2023-02-17T03:04:53.768Z,97787.09
2023-02-17T03:07:25.781Z,97781.97
2023-02-17T03:09:55.765Z,97775.84
2023-02-17T03:12:24.590Z,97770.69
2023-02-17T03:14:55.843Z,97772.97
2023-02-17T03:17:24.692Z,97780.88
2023-02-17T03:19:54.749Z,97777.00
2023-02-17T03:22:26.885Z,97781.81
2023-02-17T03:24:55.697Z,97775.75
2023-02-17T03:27:24.028Z,97764.63
2023-02-17T03:29:52.309Z,97764.19
2023-02-17T03:32:21.756Z,97767.75
2023-02-17T03:34:50.122Z,97768.38
2023-02-17T03:37:19.781Z,97764.25
2023-02-17T03:39:48.013Z,97763.53
2023-02-17T03:42:16.530Z,97770.28
2023-02-17T03:44:44.915Z,97761.25
2023-02-17T03:47:13.421Z,97768.50
2023-02-17T03:49:42.039Z,97767.19
2023-02-17T03:52:11.329Z,97754.41
2023-02-17T03:54:41.125Z,97748.31
2023-02-17T03:57:09.380Z,97746.47
2023-02-17T03:59:38.249Z,97747.09
2023-02-17T04:02:06.638Z,97746.09
2023-02-17T04:04:36.273Z,97743.00
2023-02-17T04:07:04.715Z,97744.91
2023-02-17T04:09:32.962Z,97747.63
2023-02-17T04:12:03.148Z,97751.72
2023-02-17T04:14:31.434Z,97748.94
2023-02-17T04:16:59.685Z,97751.38
2023-02-17T04:19:28.029Z,97758.88
2023-02-17T04:21:56.242Z,97758.38
2023-02-17T04:24:24.532Z,97757.81
2023-02-17T04:26:52.771Z,97763.44
2023-02-17T04:29:22.921Z,97757.81
2023-02-17T04:31:51.380Z,97757.81
2023-02-17T04:38:41.859Z,97749.84
2023-02-17T04:41:34.552Z,97748.81
2023-02-17T04:44:02.881Z,97745.09
2023-02-17T04:46:32.816Z,97748.63
2023-02-17T04:49:01.154Z,97748.41
2023-02-17T04:51:30.275Z,97755.22
2023-02-17T04:53:58.647Z,97751.22
2023-02-17T04:56:27.007Z,97748.59
2023-02-17T04:58:55.351Z,97746.78
2023-02-17T05:01:23.628Z,97737.66
2023-02-17T05:03:53.547Z,97737.97
2023-02-17T05:06:22.346Z,97735.13
2023-02-17T05:08:50.987Z,97737.00
2023-02-17T05:11:19.172Z,97723.69
2023-02-17T05:13:47.434Z,97735.50
2023-02-17T05:16:15.674Z,97736.50
2023-02-17T05:18:43.924Z,97731.66
2023-02-17T05:21:13.613Z,97729.84
2023-02-17T05:23:42.093Z,97738.41
2023-02-17T05:26:11.301Z,97734.97
2023-02-17T05:28:39.714Z,97734.78
2023-02-17T05:31:08.074Z,97735.84
2023-02-17T05:33:36.378Z,97732.44
2023-02-17T05:36:06.129Z,97740.00
2023-02-17T05:38:36.354Z,97743.75
2023-02-17T05:41:05.402Z,97742.44
2023-02-17T05:43:34.343Z,97743.53
2023-02-17T05:46:03.733Z,97738.19
2023-02-17T05:48:32.295Z,97736.13
2023-02-17T05:51:00.511Z,97736.59
2023-02-17T05:53:28.762Z,97741.44
2023-02-17T05:55:58.630Z,97732.63
2023-02-17T05:58:27.464Z,97731.31
2023-02-17T06:00:55.705Z,97730.72
2023-02-17T06:03:24.011Z,97734.19
2023-02-17T06:05:52.581Z,97741.19
2023-02-17T06:08:20.977Z,97753.44
2023-02-17T06:10:49.257Z,97755.13
2023-02-17T06:13:19.575Z,97753.00
2023-02-17T06:15:48.834Z,97748.66
2023-02-17T06:18:17.151Z,97755.59
2023-02-17T06:20:45.336Z,97752.88
2023-02-17T06:23:13.541Z,97752.66
2023-02-17T06:25:41.952Z,97750.78
2023-02-17T06:28:10.746Z,97747.59
2023-02-17T06:30:40.359Z,97739.00
2023-02-17T06:33:08.646Z,97734.25
2023-02-17T06:35:36.810Z,97741.19
2023-02-17T06:38:05.036Z,97742.09
2023-02-17T06:40:33.314Z,97738.09
2023-02-17T06:43:01.902Z,97746.63
2023-02-17T06:45:30.110Z,97732.72
2023-02-17T06:47:59.761Z,97746.63
2023-02-17T06:50:28.015Z,97747.19
2023-02-17T06:52:56.400Z,97749.88
2023-02-17T06:55:24.659Z,97751.47
2023-02-17T06:57:52.898Z,97751.47
2023-02-17T07:00:22.381Z,97749.31
2023-02-17T07:02:50.798Z,97753.63
2023-02-17T07:05:20.712Z,97743.44
2023-02-17T07:07:49.428Z,97747.72
2023-02-17T07:10:17.857Z,97748.81
2023-02-17T07:12:46.256Z,97744.50
2023-02-17T07:15:15.052Z,97749.06
2023-02-17T07:17:43.355Z,97756.28
2023-02-17T07:20:12.722Z,97758.47
2023-02-17T07:22:42.375Z,97755.00
2023-02-17T07:25:11.106Z,97753.94
2023-02-17T07:27:39.317Z,97750.19
2023-02-17T07:30:08.744Z,97749.13
2023-02-17T07:33:02.194Z,97745.69
2023-02-17T07:35:30.461Z,97750.22
2023-02-17T07:38:00.257Z,97748.59
2023-02-17T07:40:29.517Z,97749.41
2023-02-17T07:42:58.930Z,97749.41
2023-02-17T07:45:27.563Z,97747.00
2023-02-17T07:47:55.804Z,97762.53
2023-02-17T07:50:24.063Z,97749.16
2023-02-17T07:52:52.706Z,97753.97
2023-02-17T07:55:22.820Z,97761.25
2023-02-17T07:57:51.950Z,97748.09
2023-02-17T08:00:20.973Z,97756.38
2023-02-17T08:02:49.273Z,97751.03
2023-02-17T08:05:17.618Z,97757.47
2023-02-17T08:07:45.865Z,97766.03
2023-02-17T08:10:31.479Z,97760.44
2023-02-17T08:13:19.005Z,97757.72
2023-02-17T08:15:47.975Z,97755.84
2023-02-17T08:18:16.271Z,97748.34
2023-02-17T08:20:45.871Z,97754.78
2023-02-17T08:23:14.574Z,97761.25
2023-02-17T08:25:43.982Z,97749.16
2023-02-17T08:28:14.140Z,97755.31
2023-02-17T08:30:42.971Z,97757.44
2023-02-17T08:33:11.311Z,97762.28
2023-02-17T08:35:39.637Z,97763.34
2023-02-17T08:38:07.924Z,97760.94
2023-02-17T08:40:36.256Z,97760.66
2023-02-17T08:43:04.548Z,97767.13
2023-02-17T08:45:36.681Z,97774.59
2023-02-17T08:48:05.731Z,97774.59
2023-02-17T08:50:34.704Z,97779.72
2023-02-17T08:53:03.176Z,97780.25
2023-02-17T08:55:43.974Z,97773.00
2023-02-17T08:58:16.934Z,97775.69
2023-02-17T09:00:46.778Z,97778.34
2023-02-17T09:03:15.179Z,97770.81
2023-02-17T09:05:43.526Z,97767.06
2023-02-17T09:08:11.904Z,97763.28
2023-02-17T09:10:40.539Z,97757.38
2023-02-17T09:13:09.257Z,97767.31
2023-02-17T09:15:37.601Z,97773.47
2023-02-17T09:18:07.413Z,97780.41
2023-02-17T09:20:36.126Z,97774.00
2023-02-17T09:23:04.754Z,97785.78
2023-02-17T09:25:33.065Z,97782.59
2023-02-17T09:28:01.418Z,97786.06
2023-02-17T09:30:30.375Z,97795.97
2023-02-17T09:32:59.191Z,97794.63
2023-02-17T09:35:29.347Z,97786.31
2023-02-17T09:37:57.580Z,97787.41
2023-02-17T09:40:39.614Z,97783.66
2023-02-17T09:43:09.679Z,97782.59
2023-02-17T09:45:38.146Z,97788.47
2023-02-17T09:48:09.450Z,97781.78
2023-02-17T09:50:44.408Z,97785.25
2023-02-17T09:53:17.685Z,97771.75
2023-02-17T09:55:49.073Z,97776.03
2023-02-17T09:58:20.565Z,97773.53
2023-02-17T10:00:51.650Z,97761.44
2023-02-17T10:03:22.517Z,97777.50
2023-02-17T10:05:56.206Z,97765.41
2023-02-17T10:08:28.371Z,97770.63
2023-02-17T10:11:03.439Z,97767.56
2023-02-17T10:13:33.515Z,97769.69
2023-02-17T10:16:06.549Z,97770.25
2023-02-17T10:18:38.661Z,97769.75
2023-02-17T10:21:13.321Z,97782.09
2023-02-17T10:23:41.775Z,97781.34
2023-02-17T10:26:19.999Z,97777.31
2023-02-17T10:28:53.594Z,97771.84
2023-02-17T10:31:29.806Z,97776.59
2023-02-17T10:34:03.933Z,97764.84
2023-02-17T10:36:41.261Z,97766.31
2023-02-17T10:39:14.144Z,97762.22
2023-02-17T10:41:43.980Z,97749.22
2023-02-17T10:44:15.686Z,97749.78
2023-02-17T10:46:44.498Z,97758.72
2023-02-17T10:49:20.461Z,97744.41
2023-02-17T10:51:50.026Z,97755.63
2023-02-17T10:54:43.700Z,97749.66
2023-02-17T10:57:14.087Z,97755.03
2023-02-17T10:59:44.410Z,97744.94
2023-02-17T11:02:19.082Z,97751.34
2023-02-17T11:04:49.798Z,97740.44
2023-02-17T11:07:21.371Z,97746.88
2023-02-17T11:09:51.305Z,97736.22
2023-02-17T11:12:23.242Z,97730.47
2023-02-17T11:14:53.461Z,97730.53
2023-02-17T11:17:25.713Z,97725.69
2023-02-17T11:19:59.536Z,97729.31
2023-02-17T11:22:37.251Z,97725.59
2023-02-17T11:25:08.728Z,97718.53
2023-02-17T11:27:37.029Z,97699.41
2023-02-17T11:30:11.014Z,97710.97
2023-02-17T11:32:39.444Z,97709.91
2023-02-17T11:35:22.570Z,97698.59
2023-02-17T11:37:52.288Z,97698.03
2023-02-17T11:40:29.631Z,97699.56
2023-02-17T11:42:59.445Z,97689.53
2023-02-17T11:45:30.295Z,97686.09
2023-02-17T11:48:22.865Z,97686.16
2023-02-17T11:50:54.743Z,97685.88
2023-02-17T11:53:30.981Z,97688.63
2023-02-17T11:56:08.297Z,97681.50
2023-02-17T11:58:47.988Z,97679.59
2023-02-17T12:01:23.855Z,97682.09
2023-02-17T12:04:16.042Z,97678.06
2023-02-17T12:06:49.889Z,97672.28
2023-02-17T12:09:25.419Z,97680.06
2023-02-17T12:11:59.807Z,97666.47
2023-02-17T12:14:45.504Z,97670.09
2023-02-17T12:17:17.772Z,97646.56
2023-02-17T12:19:51.408Z,97665.03
2023-02-17T12:22:20.913Z,97665.09
2023-02-17T12:25:04.438Z,97661.03
2023-02-17T12:27:40.187Z,97671.00
2023-02-17T12:30:20.828Z,97675.94
2023-02-17T12:33:00.835Z,97673.69
2023-02-17T12:35:34.402Z,97667.50
2023-02-17T12:38:10.506Z,97653.59
2023-02-17T12:40:41.211Z,97658.84
2023-02-17T12:43:20.641Z,97659.72
2023-02-17T12:45:49.771Z,97655.97
2023-02-17T12:48:26.109Z,97660.41
2023-02-17T12:50:58.127Z,97656.53
2023-02-17T12:53:35.822Z,97654.41
2023-02-17T12:56:09.677Z,97660.03
2023-02-17T12:58:37.954Z,97646.84
2023-02-17T13:01:09.383Z,97656.09
2023-02-17T13:03:37.966Z,97649.63
2023-02-17T13:06:21.282Z,97658.19
2023-02-17T13:08:53.474Z,97656.63
2023-02-17T13:11:29.970Z,97646.19
2023-02-17T13:13:59.050Z,97655.69
2023-02-17T13:16:28.608Z,97650.47
2023-02-17T13:18:57.310Z,97652.97
2023-02-17T13:21:29.654Z,97650.38
2023-02-17T13:24:02.951Z,97654.31
2023-02-17T13:26:34.237Z,97663.06
2023-02-17T13:29:12.170Z,97653.00
2023-02-17T13:31:49.264Z,97652.50
2023-02-17T13:34:33.286Z,97662.84
2023-02-17T13:37:03.627Z,97657.75
2023-02-17T13:39:34.915Z,97664.53
2023-02-17T13:42:05.768Z,97656.94
2023-02-17T13:44:35.755Z,97675.31
2023-02-17T13:47:14.293Z,97671.56
2023-02-17T13:49:42.718Z,97663.63
2023-02-17T13:52:18.413Z,97676.38
2023-02-17T13:54:53.812Z,97671.94
2023-02-17T13:57:27.908Z,97672.91
2023-02-17T14:00:07.508Z,97673.78
2023-02-17T14:02:45.967Z,97669.41
2023-02-17T14:05:19.748Z,97668.38
2023-02-17T14:07:48.496Z,97670.00
2023-02-17T14:10:20.005Z,97678.00
2023-02-17T14:12:50.193Z,97666.19
2023-02-17T14:15:19.857Z,97680.97
2023-02-17T14:17:48.328Z,97672.47
2023-02-17T14:20:30.315Z,97683.81
2023-02-17T14:23:06.151Z,97683.22
2023-02-17T14:25:36.794Z,97681.41
2023-02-17T14:28:19.293Z,97682.75
2023-02-17T14:30:47.770Z,97683.66
2023-02-17T14:33:24.611Z,97681.88
2023-02-17T14:35:54.654Z,97681.38
2023-02-17T14:38:24.527Z,97683.00
2023-02-17T14:40:53.484Z,97684.09
2023-02-17T14:43:26.555Z,97689.72
2023-02-17T14:45:54.891Z,97691.03
2023-02-17T14:48:23.188Z,97683.53
2023-02-17T14:50:54.016Z,97679.53
2023-02-17T14:55:58.781Z,97681.91
2023-02-17T14:58:29.799Z,97674.91
2023-02-17T15:00:59.120Z,97673.78
2023-02-17T15:03:27.706Z,97671.84
2023-02-17T15:05:56.056Z,97667.25
2023-02-17T15:08:30.360Z,97659.94
2023-02-17T15:10:58.473Z,97668.28
2023-02-17T15:13:28.266Z,97669.03
2023-02-17T15:15:56.634Z,97654.47
2023-02-17T15:18:27.078Z,97651.50
2023-02-17T15:20:56.270Z,97640.22
2023-02-17T15:23:25.648Z,97639.09
2023-02-17T15:25:55.474Z,97639.56
2023-02-17T15:28:23.613Z,97641.19
2023-02-17T15:30:54.808Z,97648.53
2023-02-17T15:33:24.202Z,97636.50
2023-02-17T15:35:54.588Z,97645.03
2023-02-17T15:38:23.435Z,97639.63
2023-02-17T15:40:52.098Z,97641.53
2023-02-17T15:43:21.874Z,97636.88
2023-02-17T15:45:50.441Z,97627.16
2023-02-17T15:48:23.854Z,97635.25
2023-02-17T15:50:52.138Z,97634.69
2023-02-17T15:53:20.734Z,97640.63
2023-02-17T15:55:49.628Z,97636.06
2023-02-17T15:58:19.826Z,97634.44
2023-02-17T16:00:49.860Z,97638.47
2023-02-17T16:03:27.429Z,97635.25
2023-02-17T16:06:01.940Z,97630.66
2023-02-17T16:08:33.063Z,97630.41
2023-02-17T16:11:09.516Z,97621.25
2023-02-17T16:13:41.551Z,97615.06
2023-02-17T16:16:16.916Z,97609.41
2023-02-17T16:18:47.557Z,97611.09
2023-02-17T16:21:16.572Z,97617.28
2023-02-17T16:23:45.556Z,97622.41
2023-02-17T16:26:17.190Z,97621.94
2023-02-17T16:28:45.766Z,97627.31
2023-02-17T16:31:14.157Z,97624.19
2023-02-17T16:33:44.020Z,97631.69
2023-02-17T16:36:15.822Z,97630.66
2023-02-17T16:38:44.323Z,97632.06
2023-02-17T16:41:14.710Z,97639.13
2023-02-17T16:43:43.239Z,97639.72
2023-02-17T16:46:20.308Z,97645.38
2023-02-17T16:48:48.584Z,97643.28
2023-02-17T16:51:18.116Z,97649.16
2023-02-17T16:53:46.290Z,97651.28
2023-02-17T16:56:17.280Z,97651.84
2023-02-17T16:58:45.443Z,97654.09
2023-02-17T17:01:14.054Z,97643.81
2023-02-17T17:03:43.188Z,97649.78
2023-02-17T17:06:21.756Z,97659.50
2023-02-17T17:08:50.610Z,97663.78
2023-02-17T17:11:20.613Z,97669.22
2023-02-17T17:13:49.517Z,97660.34
2023-02-17T17:16:21.028Z,97664.69
2023-02-17T17:18:53.859Z,97664.91
2023-02-17T17:21:23.326Z,97669.25
2023-02-17T17:23:51.803Z,97669.22
2023-02-17T17:26:24.629Z,97667.66
2023-02-17T17:28:53.199Z,97664.44
2023-02-17T17:31:22.309Z,97660.66
2023-02-17T17:33:51.380Z,97660.69
2023-02-17T17:36:28.399Z,97666.66
2023-02-17T17:38:57.860Z,97665.59
2023-02-17T17:41:28.622Z,97671.00
2023-02-17T17:43:57.976Z,97661.38
2023-02-17T17:46:28.421Z,97661.38
2023-02-17T17:48:58.862Z,97661.97
2023-02-17T17:51:30.240Z,97659.25
2023-02-17T17:53:58.824Z,97654.75
2023-02-17T17:56:29.373Z,97646.94
2023-02-17T17:58:58.434Z,97642.13
2023-02-17T18:01:26.774Z,97647.50
2023-02-17T18:03:55.282Z,97643.50
2023-02-17T18:06:26.113Z,97653.41
2023-02-17T18:08:58.654Z,97662.56
2023-02-17T18:11:26.916Z,97657.19
2023-02-17T18:13:59.042Z,97655.06
2023-02-17T18:16:28.486Z,97656.13
2023-02-17T18:18:58.303Z,97656.63
2023-02-17T18:21:26.561Z,97649.19
2023-02-17T18:23:56.111Z,97648.38
2023-02-17T18:26:24.357Z,97647.03
2023-02-17T18:28:52.522Z,97666.38
2023-02-17T18:31:20.772Z,97662.81
2023-02-17T18:33:49.483Z,97652.41
2023-02-17T18:36:20.698Z,97661.50
2023-02-17T18:38:48.976Z,97648.06
2023-02-17T18:41:22.383Z,97652.94
2023-02-17T18:43:51.401Z,97653.75
2023-02-17T18:46:20.262Z,97649.72
2023-02-17T18:48:48.590Z,97653.75
2023-02-17T18:51:19.395Z,97650.28
2023-02-17T18:53:49.060Z,97660.22
2023-02-17T18:56:22.520Z,97658.31
2023-02-17T18:58:52.325Z,97651.59
2023-02-17T19:01:23.006Z,97661.31
2023-02-17T19:03:52.015Z,97666.66
2023-02-17T19:06:22.691Z,97669.28
2023-02-17T19:08:52.458Z,97664.72
2023-02-17T19:11:23.422Z,97664.47
2023-02-17T19:13:53.215Z,97665.00
2023-02-17T19:16:24.366Z,97680.00
2023-02-17T19:18:53.080Z,97671.31
2023-02-17T19:21:22.336Z,97672.72
2023-02-17T19:23:51.087Z,97682.56
2023-02-17T19:26:20.062Z,97674.00
2023-02-17T19:28:49.907Z,97684.19
2023-02-17T19:31:20.086Z,97690.13
2023-02-17T19:33:48.845Z,97696.00
2023-02-17T19:36:19.229Z,97696.28
2023-02-17T19:38:48.059Z,97711.09
2023-02-17T19:41:17.763Z,97713.47
2023-02-17T19:43:46.418Z,97710.25
2023-02-17T19:46:18.200Z,97713.47
2023-02-17T19:48:46.599Z,97701.13
2023-02-17T19:51:14.883Z,97714.59
2023-02-17T19:53:44.027Z,97722.13
2023-02-17T19:56:14.022Z,97731.84
2023-02-17T19:58:43.117Z,97737.75
2023-02-17T20:01:13.144Z,97735.88
2023-02-17T20:03:43.060Z,97733.75
2023-02-17T20:06:13.914Z,97727.56
2023-02-17T20:08:42.132Z,97722.16
2023-02-17T20:11:11.753Z,97715.13
2023-02-17T20:13:46.038Z,97715.13
2023-02-17T20:16:16.178Z,97710.84
2023-02-17T20:18:47.207Z,97699.50
2023-02-17T20:21:17.054Z,97707.31
2023-02-17T20:23:45.291Z,97711.84
2023-02-17T20:26:15.192Z,97717.75
2023-02-17T20:28:43.708Z,97713.44
2023-02-17T20:31:12.359Z,97718.81
2023-02-17T20:33:41.240Z,97727.69
2023-02-17T20:36:11.770Z,97716.94
2023-02-17T20:38:40.277Z,97713.44
2023-02-17T20:41:10.290Z,97726.06
2023-02-17T20:43:38.794Z,97727.97
2023-02-17T20:46:07.741Z,97721.75
2023-02-17T20:48:36.087Z,97721.50
2023-02-17T20:51:05.795Z,97719.38
2023-02-17T20:53:35.266Z,97724.97
2023-02-17T20:56:03.645Z,97727.88
2023-02-17T20:58:31.850Z,97721.44
2023-02-17T21:01:00.010Z,97729.00
2023-02-17T21:03:28.349Z,97724.16
2023-02-17T21:05:56.651Z,97735.13
2023-02-17T21:08:24.799Z,97738.13
2023-02-17T21:10:54.406Z,97732.19
2023-02-17T21:13:23.073Z,97738.94
2023-02-17T21:15:51.615Z,97752.63
2023-02-17T21:18:20.145Z,97746.69
2023-02-17T21:20:48.447Z,97749.94
2023-02-17T21:23:16.943Z,97748.84
2023-02-17T21:25:46.867Z,97748.88
2023-02-17T21:28:17.562Z,97765.56
2023-02-17T21:30:47.851Z,97755.88
2023-02-17T21:33:16.222Z,97763.94
2023-02-17T21:35:44.589Z,97767.19
2023-02-17T21:38:15.529Z,97765.28
2023-02-17T21:40:44.212Z,97755.88
2023-02-17T21:43:32.613Z,97754.25
2023-02-17T21:46:02.572Z,97766.91
2023-02-17T21:48:30.949Z,97756.38
2023-02-17T21:51:05.920Z,97771.75
2023-02-17T21:53:34.155Z,97777.41
2023-02-17T21:56:02.771Z,97765.56
2023-02-17T21:58:31.849Z,97766.63
2023-02-17T22:01:00.568Z,97770.94
2023-02-17T22:03:30.282Z,97770.44
2023-02-17T22:05:58.706Z,97766.13
2023-02-17T22:08:27.073Z,97775.78
2023-02-17T22:10:55.378Z,97773.84
2023-02-17T22:13:23.695Z,97780.84
2023-02-17T22:15:58.349Z,97776.31
2023-02-17T22:18:26.719Z,97773.91
2023-02-17T22:20:56.695Z,97773.59
2023-02-17T22:23:24.964Z,97770.41
2023-02-17T22:25:54.527Z,97775.22
2023-02-17T22:28:22.792Z,97772.25
2023-02-17T22:30:54.420Z,97776.81
2023-02-17T22:33:22.645Z,97781.97
2023-02-17T22:36:00.235Z,97781.66
2023-02-17T22:38:28.545Z,97780.53
2023-02-17T22:40:57.031Z,97782.44
2023-02-17T22:43:25.380Z,97792.13
2023-02-17T22:45:59.367Z,97782.72
2023-02-17T22:48:27.917Z,97778.44
2023-02-17T22:50:56.219Z,97789.19
2023-02-17T22:53:26.102Z,97781.66
2023-02-17T22:55:55.104Z,97786.22
2023-02-17T22:58:24.364Z,97785.97
2023-02-17T23:00:52.979Z,97785.41
2023-02-17T23:03:40.251Z,97783.28
2023-02-17T23:06:11.641Z,97775.78
2023-02-17T23:08:41.646Z,97780.84
2023-02-17T23:11:11.654Z,97780.09
2023-02-17T23:13:40.159Z,97785.41
2023-02-17T23:16:11.376Z,97783.81
2023-02-17T23:18:39.695Z,97778.44
2023-02-17T23:21:09.157Z,97775.22
2023-02-17T23:23:37.335Z,97788.91
2023-02-17T23:26:07.488Z,97784.34
2023-02-17T23:28:35.996Z,97788.16
2023-02-17T23:31:04.493Z,97798.09
2023-02-17T23:33:32.770Z,97791.09
2023-02-17T23:36:00.937Z,97799.44
2023-02-17T23:38:29.119Z,97798.91
2023-02-17T23:40:57.436Z,97804.28
2023-02-17T23:43:27.053Z,97794.59
2023-02-17T23:45:56.897Z,97796.47
2023-02-17T23:48:25.221Z,97805.06
2023-02-17T23:50:57.419Z,97799.69
2023-02-17T23:53:25.735Z,97794.31
2023-02-17T23:56:02.501Z,97791.88
2023-02-17T23:58:32.153Z,97785.16
